Saint-Gabriel-De-Brandon, Canada
Current Conditions -  °F | °C
As of 3:00 PM on Friday 24 Oct 2014 (Local Time) from CYRQ Reporting Station
Overcast Overcast  
Wind Chill: 55°   Ceiling: 8500
Heat Index: 55°   Visibility: 9mi
Dew Point: 37°   Wind: 5mph
Humidity: 51%   Direction: 210°SSW
Pressure: 29.81"   Gusts: NA
Location:  46.28°N, 73.37°W
Report Text: CYRQ 241900Z AUTO 21004KT 180V330 9SM OVC085 13/03 A2981 RMK SLP095
Loading
Personal Weather Stations






























Interactive Weather Map
Tropical Storm Tracking
New forecast layout! Learn more

10-Day Weather Forecast

Advertisements
Track Severe Weather on mobile